Time;durP1;ratioP1;P1;durP2;ratioP2;P2;SDS_P1;SDS_P2;PMS_P1;PMS_P2;Temp;Humidity;BMP_temperature;BMP_pressure;BME280_temperature;BME280_humidity;BME280_pressure;Samples;Min_cycle;Max_cycle;Signal;HPM_P1;HPM_P2
2021/03/07 00:00:11;;;;;;;23.60;12.37;;;2.30;99.90;;;;;;5087073;28;20461;-52
2021/03/07 00:02:37;;;;;;;20.40;11.90;;;2.20;99.90;;;;;;5072914;28;20875;-52
2021/03/07 00:05:07;;;;;;;23.87;13.27;;;2.30;99.90;;;;;;5090587;28;20481;-52
2021/03/07 00:07:34;;;;;;;21.90;12.10;;;2.30;99.90;;;;;;5079269;28;20458;-51
2021/03/07 00:10:00;;;;;;;19.40;11.40;;;2.30;99.90;;;;;;5089993;28;20450;-52
2021/03/07 00:12:27;;;;;;;21.07;11.97;;;2.40;99.90;;;;;;5073251;28;20451;-52
2021/03/07 00:14:53;;;;;;;20.80;11.67;;;2.30;99.90;;;;;;5071037;28;20474;-51
2021/03/07 00:17:20;;;;;;;21.23;12.10;;;2.20;99.90;;;;;;5074462;28;20450;-51
2021/03/07 00:19:46;;;;;;;20.97;11.20;;;2.20;99.90;;;;;;5070353;28;20940;-51
2021/03/07 00:22:14;;;;;;;26.57;12.20;;;2.20;99.90;;;;;;5070272;28;20458;-51
2021/03/07 00:24:40;;;;;;;21.47;12.97;;;2.00;99.90;;;;;;5071097;28;20470;-52
2021/03/07 00:27:07;;;;;;;22.27;12.87;;;2.00;99.90;;;;;;5079846;28;20482;-52
2021/03/07 00:29:33;;;;;;;23.73;12.70;;;2.00;99.90;;;;;;5090318;28;20458;-51
2021/03/07 00:32:00;;;;;;;23.37;12.53;;;1.90;99.90;;;;;;5080423;28;20443;-51
2021/03/07 00:34:26;;;;;;;20.53;12.17;;;2.00;99.90;;;;;;5072467;28;20489;-51
2021/03/07 00:36:53;;;;;;;23.57;12.13;;;2.00;99.90;;;;;;5081158;28;20449;-52
2021/03/07 00:39:20;;;;;;;23.50;12.30;;;2.00;99.90;;;;;;5085431;28;20446;-52
2021/03/07 00:41:48;;;;;;;20.87;11.10;;;2.00;99.90;;;;;;5075844;28;20458;-52
2021/03/07 00:44:15;;;;;;;18.60;11.07;;;2.00;99.90;;;;;;5090442;28;20599;-52
2021/03/07 00:46:43;;;;;;;23.27;12.60;;;1.90;99.90;;;;;;5078002;28;20486;-51
2021/03/07 00:49:10;;;;;;;23.43;11.67;;;1.80;99.90;;;;;;5074143;28;20482;-51
2021/03/07 00:51:36;;;;;;;19.37;10.80;;;1.80;99.90;;;;;;5073766;28;20455;-51
2021/03/07 00:54:04;;;;;;;24.00;12.20;;;1.80;99.90;;;;;;5087254;28;20519;-51
2021/03/07 00:56:31;;;;;;;25.17;13.47;;;1.70;99.90;;;;;;5091601;28;20816;-52
2021/03/07 00:58:58;;;;;;;24.60;11.80;;;1.90;99.90;;;;;;5084350;28;20564;-51
2021/03/07 01:01:24;;;;;;;18.97;11.20;;;1.90;99.90;;;;;;5082019;28;20449;-51
2021/03/07 01:03:51;;;;;;;20.37;11.77;;;1.90;99.90;;;;;;5086941;28;20473;-51
2021/03/07 01:06:17;;;;;;;19.90;11.73;;;1.90;99.90;;;;;;5081514;28;20474;-51
2021/03/07 01:08:44;;;;;;;19.97;12.33;;;1.90;99.90;;;;;;5088121;28;20974;-52
2021/03/07 01:11:10;;;;;;;24.27;11.93;;;1.90;99.90;;;;;;5073391;28;20439;-51
2021/03/07 01:13:38;;;;;;;22.93;12.00;;;1.80;99.90;;;;;;5087744;28;20469;-52
2021/03/07 01:16:05;;;;;;;20.20;11.60;;;1.80;99.90;;;;;;5093067;28;21132;-51
2021/03/07 01:18:32;;;;;;;19.00;11.40;;;1.80;99.90;;;;;;5093634;28;20487;-52
2021/03/07 01:20:58;;;;;;;23.27;13.13;;;1.80;99.90;;;;;;5091553;28;21124;-52
2021/03/07 01:23:27;;;;;;;22.93;12.27;;;1.70;99.90;;;;;;5092950;28;20900;-52
2021/03/07 01:25:54;;;;;;;20.50;11.60;;;1.80;99.90;;;;;;5091218;28;20933;-52
2021/03/07 01:28:20;;;;;;;18.93;10.60;;;1.80;99.90;;;;;;5080986;28;20449;-52
2021/03/07 01:30:48;;;;;;;21.90;11.80;;;1.80;99.90;;;;;;5092322;28;20832;-52
2021/03/07 01:33:14;;;;;;;20.50;11.60;;;1.80;99.90;;;;;;5084049;28;20997;-51
2021/03/07 01:35:41;;;;;;;23.43;11.90;;;1.90;99.90;;;;;;5074929;28;20443;-51
2021/03/07 01:38:08;;;;;;;19.63;11.37;;;1.80;99.90;;;;;;5089979;28;20456;-52
2021/03/07 01:40:38;;;;;;;23.73;13.27;;;1.80;99.90;;;;;;5090947;28;20947;-52
2021/03/07 01:43:05;;;;;;;23.10;11.80;;;1.80;99.90;;;;;;5080871;28;20449;-51
2021/03/07 01:45:33;;;;;;;20.57;11.10;;;1.60;99.90;;;;;;5089345;28;20904;-51
2021/03/07 01:48:03;;;;;;;23.43;11.77;;;1.60;99.90;;;;;;5105312;28;20787;-51
2021/03/07 01:50:32;;;;;;;25.40;12.00;;;1.60;99.90;;;;;;5089470;28;20462;-51
2021/03/07 01:52:59;;;;;;;24.50;12.40;;;1.50;99.90;;;;;;5084266;28;20461;-53
2021/03/07 01:55:29;;;;;;;20.63;11.27;;;1.50;99.90;;;;;;5081901;28;20457;-51
2021/03/07 01:58:02;;;;;;;21.47;11.10;;;1.60;99.90;;;;;;5086780;28;20503;-50
2021/03/07 02:00:29;;;;;;;20.70;11.70;;;1.70;99.90;;;;;;5088971;28;20529;-51
2021/03/07 02:02:57;;;;;;;22.07;12.30;;;1.70;99.90;;;;;;5084986;28;20442;-51
2021/03/07 02:05:26;;;;;;;18.50;11.50;;;1.70;99.90;;;;;;5085219;28;20489;-52
2021/03/07 02:07:53;;;;;;;20.93;12.07;;;1.70;99.90;;;;;;5080320;28;20485;-51
2021/03/07 02:10:24;;;;;;;23.70;12.17;;;1.80;99.90;;;;;;5084778;28;20451;-51
2021/03/07 02:12:54;;;;;;;25.63;13.20;;;1.70;99.90;;;;;;5079050;28;20455;-52
2021/03/07 02:15:22;;;;;;;20.80;11.20;;;1.70;99.90;;;;;;5084322;28;20809;-51
2021/03/07 02:17:49;;;;;;;23.93;11.53;;;1.80;99.90;;;;;;5082730;28;20454;-52
2021/03/07 02:20:19;;;;;;;22.80;11.50;;;1.90;99.90;;;;;;5086376;28;20508;-52
2021/03/07 02:22:53;;;;;;;20.20;11.83;;;1.90;99.90;;;;;;5082415;28;20495;-52
2021/03/07 02:25:22;;;;;;;22.73;12.50;;;1.90;99.90;;;;;;5084146;28;20478;-52
2021/03/07 02:27:49;;;;;;;22.17;12.60;;;1.90;99.90;;;;;;5079367;28;20459;-52
2021/03/07 02:30:17;;;;;;;22.90;12.40;;;1.90;99.90;;;;;;5084490;28;20843;-52
2021/03/07 02:32:47;;;;;;;22.37;12.10;;;1.80;99.90;;;;;;5080712;28;20452;-51
2021/03/07 02:35:19;;;;;;;20.60;11.47;;;1.80;99.90;;;;;;5082001;28;20486;-51
2021/03/07 02:37:50;;;;;;;22.07;11.60;;;1.70;99.90;;;;;;5079568;28;20482;-52
2021/03/07 02:40:22;;;;;;;19.13;11.03;;;1.70;99.90;;;;;;5081813;28;20966;-52
2021/03/07 02:42:52;;;;;;;21.20;11.50;;;1.80;99.90;;;;;;5079056;28;20817;-52
2021/03/07 02:45:21;;;;;;;16.80;10.10;;;1.70;99.90;;;;;;5075369;28;20473;-51
2021/03/07 02:47:51;;;;;;;21.23;10.90;;;1.80;99.90;;;;;;5085040;28;20462;-52
2021/03/07 02:50:21;;;;;;;19.13;9.57;;;1.80;99.90;;;;;;5076828;28;20458;-51
2021/03/07 02:52:54;;;;;;;20.50;10.97;;;1.90;99.90;;;;;;5076144;28;20845;-52
2021/03/07 02:55:26;;;;;;;17.80;10.90;;;1.80;99.90;;;;;;5078133;28;20549;-52
2021/03/07 02:57:54;;;;;;;21.67;10.70;;;1.60;99.90;;;;;;5075909;28;20500;-51
2021/03/07 03:00:22;;;;;;;24.90;11.00;;;1.60;99.90;;;;;;5082779;28;20454;-52
2021/03/07 03:02:50;;;;;;;16.20;9.00;;;1.70;99.90;;;;;;5083493;28;20797;-52
2021/03/07 03:05:18;;;;;;;18.90;10.00;;;1.80;99.90;;;;;;5085043;28;20477;-51
2021/03/07 03:07:45;;;;;;;23.20;10.30;;;1.80;99.90;;;;;;5079958;28;20443;-52
2021/03/07 03:10:13;;;;;;;21.23;10.47;;;1.80;99.90;;;;;;5080949;28;20449;-50
2021/03/07 03:12:46;;;;;;;18.17;9.87;;;1.60;99.90;;;;;;5079928;28;20445;-51
2021/03/07 03:15:13;;;;;;;17.67;9.70;;;1.70;99.90;;;;;;5083769;28;20473;-51
2021/03/07 03:17:41;;;;;;;18.60;10.50;;;1.70;99.90;;;;;;5083057;28;21170;-51
2021/03/07 03:20:13;;;;;;;17.50;10.47;;;1.70;99.90;;;;;;5078456;28;20445;-51
2021/03/07 03:22:40;;;;;;;20.67;10.40;;;1.70;99.90;;;;;;5089975;28;20477;-51
2021/03/07 03:25:09;;;;;;;17.60;10.00;;;1.70;99.90;;;;;;5089204;28;20468;-51
2021/03/07 03:27:36;;;;;;;18.83;10.30;;;1.70;99.90;;;;;;5083066;28;20462;-51
2021/03/07 03:30:10;;;;;;;17.80;10.40;;;1.70;99.90;;;;;;5086501;28;20446;-51
2021/03/07 03:32:37;;;;;;;19.53;10.50;;;1.70;99.90;;;;;;5079122;28;20446;-51
2021/03/07 03:35:07;;;;;;;19.33;10.67;;;1.70;99.90;;;;;;5072510;28;20478;-51
2021/03/07 03:37:33;;;;;;;18.97;10.77;;;1.40;99.90;;;;;;5089626;28;20461;-51
2021/03/07 03:40:00;;;;;;;18.13;10.10;;;1.30;99.90;;;;;;5090799;28;20457;-51
2021/03/07 03:42:28;;;;;;;15.90;9.90;;;1.30;99.90;;;;;;5077571;28;20504;-52
2021/03/07 03:44:58;;;;;;;19.10;9.67;;;1.30;99.90;;;;;;5082568;28;20470;-51
2021/03/07 03:47:27;;;;;;;18.33;10.27;;;1.60;99.90;;;;;;5072433;28;20484;-51
2021/03/07 03:49:55;;;;;;;19.10;9.97;;;1.60;99.90;;;;;;5070859;28;20567;-51
2021/03/07 03:52:23;;;;;;;18.40;9.73;;;1.40;99.90;;;;;;5076175;28;20447;-51
2021/03/07 03:54:58;;;;;;;18.40;9.30;;;1.40;99.90;;;;;;5073124;28;20477;-51
2021/03/07 03:57:28;;;;;;;18.07;9.67;;;1.50;99.90;;;;;;5090758;28;20468;-50
2021/03/07 03:59:57;;;;;;;20.93;10.40;;;1.50;99.90;;;;;;5089325;28;20942;-50
2021/03/07 04:02:26;;;;;;;21.40;11.40;;;1.20;99.90;;;;;;5090750;28;20457;-51
2021/03/07 04:04:54;;;;;;;21.17;10.57;;;1.40;99.90;;;;;;5076052;28;20466;-51
2021/03/07 04:07:23;;;;;;;20.10;10.07;;;1.30;99.90;;;;;;5070391;28;20483;-51
2021/03/07 04:09:51;;;;;;;22.40;11.50;;;1.10;99.90;;;;;;5074465;28;20539;-50
2021/03/07 04:12:19;;;;;;;19.00;10.37;;;1.20;99.90;;;;;;5074413;28;20459;-51
2021/03/07 04:14:46;;;;;;;23.17;12.47;;;1.30;99.90;;;;;;5074408;28;20834;-51
2021/03/07 04:17:15;;;;;;;18.73;10.90;;;1.20;99.90;;;;;;5078681;28;20504;-50
2021/03/07 04:19:42;;;;;;;18.43;10.43;;;1.30;99.90;;;;;;5087669;28;20462;-51
2021/03/07 04:22:09;;;;;;;18.30;9.87;;;1.20;99.90;;;;;;5094207;28;20445;-51
2021/03/07 04:24:36;;;;;;;23.87;11.37;;;1.40;99.90;;;;;;5075846;28;20472;-51
2021/03/07 04:27:02;;;;;;;21.60;11.60;;;1.60;99.90;;;;;;5075093;28;20482;-51
2021/03/07 04:29:29;;;;;;;18.40;10.40;;;1.40;99.90;;;;;;5076564;28;20446;-50
2021/03/07 04:31:57;;;;;;;18.07;10.30;;;1.40;99.90;;;;;;5084320;28;20508;-51
2021/03/07 04:34:24;;;;;;;19.60;10.30;;;1.50;99.90;;;;;;5094130;28;20515;-50
2021/03/07 04:36:52;;;;;;;20.37;10.40;;;1.50;99.90;;;;;;5090402;28;20450;-50
2021/03/07 04:39:19;;;;;;;20.93;10.97;;;1.40;99.90;;;;;;5075271;28;20446;-50
2021/03/07 04:41:46;;;;;;;20.17;10.80;;;1.30;99.90;;;;;;5091478;28;20452;-51
2021/03/07 04:44:13;;;;;;;21.33;10.90;;;1.10;99.90;;;;;;5093482;28;20895;-51
2021/03/07 04:46:40;;;;;;;20.30;10.57;;;1.20;99.90;;;;;;5094086;28;20485;-51
2021/03/07 04:49:09;;;;;;;23.20;10.60;;;1.30;99.90;;;;;;5094188;28;20453;-50
2021/03/07 04:51:35;;;;;;;20.47;10.97;;;1.50;99.90;;;;;;5092402;28;20443;-50
2021/03/07 04:54:03;;;;;;;22.27;11.30;;;1.50;99.90;;;;;;5088470;28;20473;-51
2021/03/07 04:56:31;;;;;;;21.57;11.50;;;1.30;99.90;;;;;;5088473;28;20450;-50
2021/03/07 04:58:58;;;;;;;21.17;11.20;;;1.30;99.90;;;;;;5094006;28;20444;-51
2021/03/07 05:01:24;;;;;;;21.83;11.93;;;1.40;99.90;;;;;;5077054;28;20833;-51
2021/03/07 05:03:52;;;;;;;20.50;11.40;;;1.60;99.90;;;;;;5073520;28;20461;-51
2021/03/07 05:06:18;;;;;;;20.47;11.03;;;1.60;99.90;;;;;;5090379;28;20984;-50
2021/03/07 05:08:45;;;;;;;24.30;12.57;;;1.70;99.90;;;;;;5092150;28;20435;-50
2021/03/07 05:11:13;;;;;;;22.03;11.20;;;1.80;99.90;;;;;;5093115;28;20449;-51
2021/03/07 05:13:39;;;;;;;20.87;11.57;;;1.80;99.90;;;;;;5093564;28;20476;-51
2021/03/07 05:16:08;;;;;;;20.93;11.50;;;1.90;99.90;;;;;;5091837;28;20955;-51
2021/03/07 05:18:34;;;;;;;26.33;11.90;;;1.90;99.90;;;;;;5093455;28;20935;-51
2021/03/07 05:21:01;;;;;;;18.43;10.80;;;1.90;99.90;;;;;;5091159;28;20450;-50
2021/03/07 05:23:28;;;;;;;22.83;10.50;;;1.90;99.90;;;;;;5076575;28;20473;-50
2021/03/07 05:25:57;;;;;;;22.77;10.50;;;1.90;99.90;;;;;;5077293;28;20850;-51
2021/03/07 05:28:24;;;;;;;20.17;10.33;;;1.90;99.90;;;;;;5087487;28;20869;-50
2021/03/07 05:30:50;;;;;;;18.43;10.43;;;1.80;99.90;;;;;;5085122;28;20449;-51
2021/03/07 05:33:20;;;;;;;20.40;11.60;;;1.90;99.90;;;;;;5076688;28;20478;-52
2021/03/07 05:35:48;;;;;;;18.53;11.03;;;2.00;99.90;;;;;;5073739;28;20447;-51
2021/03/07 05:38:15;;;;;;;20.63;11.37;;;2.00;99.90;;;;;;5073153;28;20991;-51
2021/03/07 05:40:42;;;;;;;22.30;11.90;;;1.90;99.90;;;;;;5073009;28;20451;-51
2021/03/07 05:43:09;;;;;;;19.83;11.17;;;1.80;99.90;;;;;;5089670;28;20454;-51
2021/03/07 05:45:37;;;;;;;24.47;12.00;;;1.90;99.90;;;;;;5092957;28;20931;-51
2021/03/07 05:48:04;;;;;;;22.53;11.77;;;1.90;99.90;;;;;;5091017;28;20442;-51
2021/03/07 05:50:31;;;;;;;18.83;11.03;;;1.80;99.90;;;;;;5089907;28;20449;-51
2021/03/07 05:52:58;;;;;;;22.77;12.27;;;1.70;99.90;;;;;;5073565;28;20462;-51
2021/03/07 05:55:25;;;;;;;20.67;11.67;;;1.80;99.90;;;;;;5079977;28;20966;-51
2021/03/07 05:57:56;;;;;;;23.03;12.40;;;1.70;99.90;;;;;;5075986;28;20446;-51
2021/03/07 06:00:23;;;;;;;20.40;11.90;;;1.80;99.90;;;;;;5072494;28;20450;-51
2021/03/07 06:02:51;;;;;;;24.13;13.03;;;2.00;99.90;;;;;;5072374;28;20479;-50
2021/03/07 06:05:18;;;;;;;21.80;12.23;;;2.00;99.90;;;;;;5088520;28;20473;-50
2021/03/07 06:07:47;;;;;;;22.27;12.73;;;2.10;99.90;;;;;;5075452;28;20486;-51
2021/03/07 06:10:16;;;;;;;22.83;12.60;;;2.00;99.90;;;;;;5089660;28;20535;-51
2021/03/07 06:12:44;;;;;;;21.20;12.23;;;1.70;99.90;;;;;;5092705;28;20453;-50
2021/03/07 06:15:12;;;;;;;26.07;12.73;;;1.70;99.90;;;;;;5092378;28;20472;-51
2021/03/07 06:17:41;;;;;;;26.40;13.20;;;1.90;99.90;;;;;;5083566;28;20489;-50
2021/03/07 06:20:12;;;;;;;24.80;13.20;;;2.00;99.90;;;;;;5089450;28;20446;-51
2021/03/07 06:22:40;;;;;;;24.70;13.60;;;1.90;99.90;;;;;;5092196;28;20486;-50
2021/03/07 06:25:12;;;;;;;20.47;13.00;;;2.00;99.90;;;;;;5090428;28;20663;-50
2021/03/07 06:27:39;;;;;;;23.00;12.77;;;2.00;99.90;;;;;;5091990;28;21047;-50
2021/03/07 06:30:09;;;;;;;30.20;15.27;;;1.80;99.90;;;;;;5075720;28;20450;-51
2021/03/07 06:32:38;;;;;;;30.47;16.50;;;1.70;99.90;;;;;;5071631;28;20967;-51
2021/03/07 06:35:06;;;;;;;23.07;13.40;;;1.60;99.90;;;;;;5083007;28;20485;-51
2021/03/07 06:37:50;;;;;;;25.13;14.67;;;1.60;99.90;;;;;;5092120;28;20499;-51
2021/03/07 06:40:25;;;;;;;26.53;13.27;;;1.60;99.90;;;;;;5091898;28;20472;-50
2021/03/07 06:42:52;;;;;;;24.20;13.40;;;1.60;99.90;;;;;;5091517;28;20975;-51
2021/03/07 06:45:18;;;;;;;26.90;14.03;;;1.80;99.90;;;;;;5081585;28;20897;-50
2021/03/07 06:47:55;;;;;;;26.33;12.77;;;1.90;99.90;;;;;;5082617;28;20485;-50
2021/03/07 06:50:22;;;;;;;27.77;14.53;;;1.90;99.90;;;;;;5071828;28;20540;-51
2021/03/07 06:52:56;;;;;;;24.87;13.33;;;1.90;99.90;;;;;;5071329;28;20454;-51
2021/03/07 06:55:25;;;;;;;23.20;11.97;;;2.10;99.90;;;;;;5071405;28;20826;-51
2021/03/07 06:57:52;;;;;;;24.57;13.33;;;2.20;99.90;;;;;;5085439;28;20479;-51
2021/03/07 07:00:37;;;;;;;29.07;15.07;;;2.00;99.90;;;;;;5091658;28;20457;-50
2021/03/07 07:03:09;;;;;;;30.20;14.73;;;2.00;99.90;;;;;;5081409;28;20538;-51
2021/03/07 07:05:38;;;;;;;26.80;14.93;;;1.90;99.90;;;;;;5072187;28;20447;-51
2021/03/07 07:08:06;;;;;;;27.30;15.63;;;1.80;99.90;;;;;;5072323;28;20523;-50
2021/03/07 07:10:57;;;;;;;29.20;16.07;;;1.70;99.90;;;;;;5079062;28;20445;-51
2021/03/07 07:13:24;;;;;;;26.00;14.50;;;1.60;99.90;;;;;;5072753;28;20523;-51
2021/03/07 07:15:59;;;;;;;24.13;14.10;;;1.90;99.90;;;;;;5073713;28;20434;-50
2021/03/07 07:18:26;;;;;;;27.53;14.27;;;1.70;99.90;;;;;;5081374;28;20995;-50
2021/03/07 07:20:53;;;;;;;27.43;13.80;;;1.80;99.90;;;;;;5070933;28;20452;-51
2021/03/07 07:23:21;;;;;;;24.73;14.00;;;1.80;99.90;;;;;;5071005;28;20898;-50
2021/03/07 07:25:48;;;;;;;29.70;14.90;;;2.00;99.90;;;;;;5071076;28;20516;-51
2021/03/07 07:28:15;;;;;;;25.80;15.17;;;2.00;99.90;;;;;;5075053;28;20449;-50
2021/03/07 07:30:42;;;;;;;31.10;16.33;;;1.90;99.90;;;;;;5083786;28;20449;-51
2021/03/07 07:33:16;;;;;;;31.43;17.13;;;1.80;99.90;;;;;;5090805;28;20449;-51
2021/03/07 07:35:44;;;;;;;29.50;15.90;;;1.80;99.90;;;;;;5077449;28;20542;-51
2021/03/07 07:38:12;;;;;;;26.13;14.60;;;1.70;99.90;;;;;;5075990;28;20827;-50
2021/03/07 07:40:43;;;;;;;30.23;14.90;;;1.70;99.90;;;;;;5088844;28;20445;-51
2021/03/07 07:43:11;;;;;;;29.15;15.30;;;2.00;99.90;;;;;;5074519;28;20465;-51
2021/03/07 07:45:38;;;;;;;25.70;13.60;;;2.10;99.90;;;;;;5077133;28;20203;-50
2021/03/07 07:48:06;;;;;;;24.67;14.30;;;2.20;99.90;;;;;;5090221;28;20461;-51
2021/03/07 07:50:37;;;;;;;28.27;15.00;;;2.20;99.90;;;;;;5087131;28;20672;-51
2021/03/07 07:53:04;;;;;;;27.90;15.10;;;2.30;99.90;;;;;;5083563;28;20450;-50
2021/03/07 07:55:46;;;;;;;32.20;16.20;;;2.30;99.90;;;;;;5087985;28;20511;-51
2021/03/07 07:58:46;;;;;;;28.80;15.20;;;2.30;99.90;;;;;;5076565;28;20493;-51
2021/03/07 08:01:14;;;;;;;27.40;15.70;;;2.50;99.90;;;;;;5078558;28;20442;-51
2021/03/07 08:03:43;;;;;;;29.83;16.13;;;2.70;99.90;;;;;;5081188;28;20477;-50
2021/03/07 08:06:11;;;;;;;27.53;14.80;;;2.80;99.90;;;;;;5070028;28;20482;-51
2021/03/07 08:08:39;;;;;;;27.87;15.50;;;2.70;99.90;;;;;;5085530;28;20446;-51
2021/03/07 08:11:07;;;;;;;30.30;15.57;;;2.60;99.90;;;;;;5092075;28;21123;-50
2021/03/07 08:13:46;;;;;;;32.40;16.63;;;2.70;99.90;;;;;;5092171;28;20480;-51
2021/03/07 08:16:13;;;;;;;30.70;17.13;;;3.00;99.90;;;;;;5070671;28;20454;-51
2021/03/07 08:18:48;;;;;;;26.10;14.97;;;3.40;99.90;;;;;;5070843;28;20474;-50
2021/03/07 08:21:16;;;;;;;28.50;14.90;;;3.70;99.90;;;;;;5088901;28;20464;-51
2021/03/07 08:23:57;;;;;;;26.70;14.40;;;3.70;99.90;;;;;;5086040;28;21164;-51
2021/03/07 08:26:26;;;;;;;28.43;15.53;;;3.40;99.90;;;;;;5077760;28;20597;-52
2021/03/07 08:28:53;;;;;;;26.67;14.90;;;3.30;99.90;;;;;;5080440;28;20826;-51
2021/03/07 08:31:36;;;;;;;28.07;15.73;;;3.40;99.90;;;;;;5081358;28;20822;-52
2021/03/07 08:34:19;;;;;;;29.80;15.83;;;3.30;99.90;;;;;;5074042;28;20477;-51
2021/03/07 08:36:54;;;;;;;28.80;15.90;;;3.10;99.90;;;;;;5077749;28;20854;-51
2021/03/07 08:39:21;;;;;;;29.63;15.50;;;2.90;99.90;;;;;;5080361;28;20442;-51
2021/03/07 08:42:12;;;;;;;29.23;16.07;;;2.90;99.90;;;;;;5084019;28;20461;-51
2021/03/07 08:44:39;;;;;;;28.47;15.90;;;3.20;99.90;;;;;;5066920;28;20473;-52
2021/03/07 08:47:05;;;;;;;28.33;15.60;;;3.30;99.90;;;;;;5080566;28;20481;-51
2021/03/07 08:49:32;;;;;;;28.67;14.63;;;3.60;99.90;;;;;;5082888;28;20459;-52
2021/03/07 08:52:05;;;;;;;27.03;14.87;;;3.90;99.90;;;;;;5071513;28;20462;-51
2021/03/07 08:54:33;;;;;;;29.10;15.23;;;4.00;99.90;;;;;;5083099;28;20493;-51
2021/03/07 08:57:06;;;;;;;24.63;14.23;;;4.00;99.90;;;;;;5080609;28;20461;-52
2021/03/07 08:59:34;;;;;;;26.17;14.67;;;4.00;99.90;;;;;;5083721;28;20446;-52
2021/03/07 09:02:03;;;;;;;27.43;15.30;;;4.20;99.90;;;;;;5081001;28;20530;-50
2021/03/07 09:04:36;;;;;;;27.57;15.30;;;4.30;99.90;;;;;;5083763;28;20490;-50
2021/03/07 09:07:04;;;;;;;28.77;15.40;;;4.40;99.90;;;;;;5078404;28;20481;-51
2021/03/07 09:09:30;;;;;;;27.63;16.00;;;4.60;99.90;;;;;;5082210;28;20864;-51
2021/03/07 09:12:00;;;;;;;25.80;15.57;;;4.80;99.90;;;;;;5081794;28;20450;-51
2021/03/07 09:14:32;;;;;;;25.07;14.10;;;4.90;99.90;;;;;;5076676;28;20475;-51
2021/03/07 09:17:00;;;;;;;28.87;15.90;;;5.30;99.90;;;;;;5083330;28;20533;-50
2021/03/07 09:19:33;;;;;;;27.73;15.60;;;5.30;99.90;;;;;;5079998;28;20458;-51
2021/03/07 09:22:18;;;;;;;25.33;14.10;;;5.60;99.90;;;;;;5082984;28;20443;-52
2021/03/07 09:25:04;;;;;;;26.10;15.10;;;5.70;99.90;;;;;;5084552;28;20469;-52
2021/03/07 09:27:32;;;;;;;26.10;15.37;;;5.90;99.90;;;;;;5081677;28;20477;-51
2021/03/07 09:30:04;;;;;;;30.60;17.03;;;5.60;99.90;;;;;;5079953;28;20443;-52
2021/03/07 09:32:34;;;;;;;26.07;15.70;;;5.90;99.90;;;;;;5079168;28;20458;-51
2021/03/07 09:35:15;;;;;;;23.53;14.43;;;6.20;99.90;;;;;;5082435;28;20487;-51
2021/03/07 09:37:42;;;;;;;25.20;15.47;;;6.50;99.90;;;;;;5081745;28;20956;-52
2021/03/07 09:40:12;;;;;;;23.83;14.90;;;6.70;99.90;;;;;;5078764;28;20457;-52
2021/03/07 09:42:40;;;;;;;24.00;14.43;;;6.70;99.90;;;;;;5080236;28;20455;-51
2021/03/07 09:45:08;;;;;;;21.30;12.63;;;7.00;99.90;;;;;;5080275;28;20467;-52
2021/03/07 09:47:36;;;;;;;24.53;15.33;;;7.00;99.90;;;;;;5082576;28;20898;-53
2021/03/07 09:50:03;;;;;;;26.63;15.20;;;6.80;99.90;;;;;;5077519;28;20448;-51
2021/03/07 09:52:30;;;;;;;23.90;14.97;;;6.80;99.90;;;;;;5082415;28;20479;-51
2021/03/07 09:54:57;;;;;;;21.63;14.00;;;7.10;99.90;;;;;;5083668;28;20466;-51
2021/03/07 09:57:24;;;;;;;21.00;13.03;;;7.00;99.90;;;;;;5082441;28;20447;-51
2021/03/07 09:59:52;;;;;;;19.40;12.30;;;6.80;99.90;;;;;;5086266;28;20454;-51
2021/03/07 10:02:19;;;;;;;23.87;13.80;;;6.80;99.90;;;;;;5084351;28;21145;-51
2021/03/07 10:04:50;;;;;;;20.23;12.50;;;6.70;99.90;;;;;;5080534;28;20471;-51
2021/03/07 10:07:22;;;;;;;20.53;13.20;;;6.20;99.90;;;;;;5088479;28;20482;-52
2021/03/07 10:09:59;;;;;;;24.80;13.10;;;6.30;99.90;;;;;;5086975;28;20453;-51
2021/03/07 10:12:25;;;;;;;24.23;14.90;;;6.80;99.90;;;;;;5087490;28;20470;-51
2021/03/07 10:14:55;;;;;;;28.47;14.77;;;7.10;99.90;;;;;;5084169;28;20484;-52
2021/03/07 10:17:22;;;;;;;21.93;13.97;;;7.60;99.90;;;;;;5084128;28;20468;-52
2021/03/07 10:19:50;;;;;;;21.03;13.50;;;7.60;99.90;;;;;;5085137;28;20520;-51
2021/03/07 10:22:16;;;;;;;19.80;11.87;;;7.50;99.90;;;;;;5084824;28;20458;-52
2021/03/07 10:24:43;;;;;;;23.70;13.47;;;7.50;99.90;;;;;;5091331;28;20481;-52
2021/03/07 10:27:10;;;;;;;22.17;12.60;;;7.60;99.90;;;;;;5076983;28;20482;-52
2021/03/07 10:29:38;;;;;;;20.80;13.27;;;7.60;99.90;;;;;;5075471;28;20965;-52
2021/03/07 10:32:11;;;;;;;20.60;12.50;;;7.70;99.90;;;;;;5082003;28;20556;-52
2021/03/07 10:34:40;;;;;;;22.90;13.47;;;7.80;99.90;;;;;;5089190;28;20486;-52
2021/03/07 10:37:08;;;;;;;20.43;12.00;;;8.00;99.90;;;;;;5091028;28;20448;-52
2021/03/07 10:39:35;;;;;;;21.60;12.27;;;8.00;99.90;;;;;;5078587;28;20472;-52
2021/03/07 10:42:10;;;;;;;20.50;13.17;;;7.90;99.90;;;;;;5090793;28;20473;-52
2021/03/07 10:44:39;;;;;;;21.97;13.70;;;8.10;99.90;;;;;;5079548;28;20877;-52
2021/03/07 10:47:20;;;;;;;17.30;11.70;;;8.40;99.90;;;;;;5090927;28;20484;-52
2021/03/07 10:49:49;;;;;;;19.83;11.97;;;8.30;99.90;;;;;;5086378;28;20456;-52
2021/03/07 10:52:17;;;;;;;18.03;12.53;;;8.60;99.90;;;;;;5075111;28;20449;-52
2021/03/07 10:54:44;;;;;;;22.37;13.50;;;8.40;99.90;;;;;;5077130;28;20512;-51
2021/03/07 10:57:11;;;;;;;22.67;12.63;;;8.40;99.90;;;;;;5091010;28;20502;-52
2021/03/07 10:59:38;;;;;;;17.70;12.30;;;8.50;99.90;;;;;;5074792;28;21081;-52
2021/03/07 11:02:06;;;;;;;19.50;11.73;;;8.70;99.90;;;;;;5090929;28;20457;-52
2021/03/07 11:04:33;;;;;;;20.13;12.60;;;8.70;99.90;;;;;;5078383;28;20505;-52
2021/03/07 11:07:00;;;;;;;18.63;10.90;;;8.90;99.90;;;;;;5086076;28;20485;-53
2021/03/07 11:09:27;;;;;;;20.87;13.70;;;9.30;99.90;;;;;;5086738;28;20469;-53
2021/03/07 11:11:54;;;;;;;20.20;12.13;;;9.40;99.90;;;;;;5074895;28;20725;-52
2021/03/07 11:14:21;;;;;;;19.53;13.70;;;9.40;99.90;;;;;;5083608;28;20468;-52
2021/03/07 11:16:47;;;;;;;18.03;11.90;;;9.60;99.90;;;;;;5072526;28;20927;-52
2021/03/07 11:19:16;;;;;;;16.90;12.03;;;9.60;99.90;;;;;;5070071;28;20450;-52
2021/03/07 11:21:43;;;;;;;16.90;11.37;;;9.50;99.90;;;;;;5090440;28;20453;-52
2021/03/07 11:24:13;;;;;;;20.00;12.73;;;9.50;99.90;;;;;;5090612;28;20462;-52
2021/03/07 11:26:40;;;;;;;21.93;14.13;;;9.30;99.90;;;;;;5080119;28;20476;-51
2021/03/07 11:29:07;;;;;;;22.30;14.40;;;9.00;99.90;;;;;;5071313;28;20447;-52
2021/03/07 11:31:34;;;;;;;21.20;14.10;;;8.30;99.90;;;;;;5083364;28;20456;-51
2021/03/07 11:34:00;;;;;;;19.20;13.13;;;8.70;99.90;;;;;;5089909;28;21232;-52
2021/03/07 11:36:27;;;;;;;20.17;14.03;;;9.20;99.90;;;;;;5112343;22;20453;-50
2021/03/07 11:38:53;;;;;;;18.70;12.80;;;9.30;99.90;;;;;;5090575;28;20511;-49
2021/03/07 11:41:20;;;;;;;20.70;13.47;;;9.40;99.90;;;;;;5089623;28;20450;-49
2021/03/07 11:43:47;;;;;;;18.60;12.17;;;9.50;99.90;;;;;;5099034;28;20466;-50
2021/03/07 11:46:14;;;;;;;21.13;13.40;;;9.10;99.90;;;;;;5086057;28;20450;-49
2021/03/07 11:48:40;;;;;;;21.90;13.80;;;8.20;99.90;;;;;;5088947;28;20450;-49
2021/03/07 11:51:07;;;;;;;23.37;13.90;;;7.90;99.90;;;;;;5088104;28;20454;-50
2021/03/07 11:53:33;;;;;;;19.93;12.60;;;8.10;99.90;;;;;;5089993;28;20966;-49
2021/03/07 11:56:00;;;;;;;18.87;13.07;;;7.70;99.90;;;;;;5089812;28;20450;-49
2021/03/07 11:58:27;;;;;;;21.17;13.80;;;7.40;99.90;;;;;;5078485;28;20479;-49
2021/03/07 12:00:54;;;;;;;19.63;13.57;;;7.50;99.90;;;;;;5088382;28;20446;-48
2021/03/07 12:03:21;;;;;;;20.87;13.63;;;7.30;99.90;;;;;;5090301;28;20450;-49
2021/03/07 12:05:47;;;;;;;25.50;14.67;;;7.20;99.90;;;;;;5087021;28;20452;-49
2021/03/07 12:08:14;;;;;;;24.73;14.70;;;7.00;99.90;;;;;;5089374;28;20497;-49
2021/03/07 12:10:40;;;;;;;25.67;15.27;;;6.50;99.90;;;;;;5085494;28;20450;-48
2021/03/07 12:13:07;;;;;;;24.37;15.20;;;6.20;99.90;;;;;;5088872;28;20460;-49
2021/03/07 12:15:33;;;;;;;23.47;14.30;;;6.20;99.90;;;;;;5087428;28;20462;-49
2021/03/07 12:18:01;;;;;;;26.20;14.50;;;6.20;99.90;;;;;;5085843;28;20594;-49
2021/03/07 12:20:28;;;;;;;25.53;14.27;;;6.10;99.90;;;;;;5082680;28;20815;-49
2021/03/07 12:22:54;;;;;;;23.43;14.00;;;6.30;99.90;;;;;;5081246;28;20465;-50
2021/03/07 12:25:21;;;;;;;27.13;15.20;;;6.40;99.90;;;;;;5087476;28;20469;-50
2021/03/07 12:27:47;;;;;;;29.13;14.50;;;6.50;99.90;;;;;;5089237;28;20507;-49
2021/03/07 12:30:15;;;;;;;22.00;13.50;;;6.80;99.90;;;;;;5091314;28;20462;-52
2021/03/07 12:32:42;;;;;;;24.13;14.20;;;6.80;99.90;;;;;;5091917;28;20454;-50
2021/03/07 12:35:10;;;;;;;24.63;15.17;;;6.80;99.90;;;;;;5092908;28;20458;-50
2021/03/07 12:37:37;;;;;;;24.83;14.43;;;6.70;99.90;;;;;;5092878;28;20478;-51
2021/03/07 12:40:05;;;;;;;23.30;14.03;;;6.60;99.90;;;;;;5092987;28;20467;-51
2021/03/07 12:42:32;;;;;;;26.67;15.50;;;6.50;99.90;;;;;;5082234;28;20438;-50
2021/03/07 12:44:59;;;;;;;28.20;16.20;;;6.50;99.90;;;;;;5079140;28;20994;-50